createdAt,value
2018-02-21T00:01:09.020Z,3.27
2018-02-21T00:03:36.539Z,3.30
2018-02-21T00:06:04.049Z,3.32
2018-02-21T00:08:31.597Z,3.33
2018-02-21T00:10:59.035Z,3.42
2018-02-21T00:13:26.525Z,3.46
2018-02-21T00:15:54.046Z,3.37
2018-02-21T00:18:21.518Z,3.34
2018-02-21T00:20:48.973Z,3.42
2018-02-21T00:23:16.432Z,3.44
2018-02-21T00:25:43.890Z,3.38
2018-02-21T00:28:11.410Z,3.37
2018-02-21T00:30:39.555Z,3.34
2018-02-21T00:33:06.993Z,3.35
2018-02-21T00:35:34.550Z,3.36
2018-02-21T00:38:02.350Z,3.41
2018-02-21T00:40:30.023Z,3.43
2018-02-21T00:42:57.548Z,3.40
2018-02-21T00:45:25.338Z,3.39
2018-02-21T00:47:52.831Z,3.33
2018-02-21T00:50:20.299Z,3.25
2018-02-21T00:52:47.847Z,3.23
2018-02-21T00:55:15.511Z,3.25
2018-02-21T00:57:43.514Z,3.28
2018-02-21T01:00:10.974Z,3.34
2018-02-21T01:02:38.584Z,3.33
2018-02-21T01:05:06.005Z,3.29
2018-02-21T01:07:33.434Z,3.34
2018-02-21T01:10:00.980Z,3.34
2018-02-21T01:12:28.480Z,3.26
2018-02-21T01:14:56.026Z,3.23
2018-02-21T01:17:23.446Z,3.29
2018-02-21T01:19:50.923Z,3.31
2018-02-21T01:22:18.567Z,3.31
2018-02-21T01:24:46.832Z,3.22
2018-02-21T01:27:14.348Z,3.21
2018-02-21T01:29:41.871Z,3.26
2018-02-21T01:32:09.338Z,3.30
2018-02-21T01:34:36.810Z,3.26
2018-02-21T01:37:04.313Z,3.29
2018-02-21T01:39:31.826Z,3.27
2018-02-21T01:41:59.359Z,3.27
2018-02-21T01:44:26.960Z,3.25
2018-02-21T01:46:54.421Z,3.24
2018-02-21T01:49:22.062Z,3.28
2018-02-21T01:51:49.530Z,3.30
2018-02-21T01:54:17.520Z,3.31
2018-02-21T01:56:44.982Z,3.27
2018-02-21T01:59:12.475Z,3.20
2018-02-21T02:01:39.950Z,3.15
2018-02-21T02:04:07.451Z,3.15
2018-02-21T02:06:34.848Z,3.11
2018-02-21T02:09:02.289Z,3.09
2018-02-21T02:11:29.791Z,3.14
2018-02-21T02:13:57.258Z,3.11
2018-02-21T02:16:24.742Z,3.13
2018-02-21T02:18:52.335Z,3.19
2018-02-21T02:21:19.837Z,3.20
2018-02-21T02:23:47.359Z,3.12
2018-02-21T02:26:14.860Z,3.00
2018-02-21T02:28:42.380Z,2.97
2018-02-21T02:31:09.818Z,3.01
2018-02-21T02:33:37.319Z,3.04
2018-02-21T02:36:04.714Z,3.03
2018-02-21T02:38:40.836Z,3.00
2018-02-21T02:41:08.351Z,2.92
2018-02-21T02:43:35.851Z,2.84
2018-02-21T02:46:03.337Z,2.85
2018-02-21T02:48:30.830Z,2.92
2018-02-21T02:50:58.314Z,2.96
2018-02-21T02:53:25.838Z,2.92
2018-02-21T02:55:53.444Z,2.95
2018-02-21T02:58:20.933Z,2.95
2018-02-21T03:00:48.460Z,2.89
2018-02-21T03:03:15.965Z,2.86
2018-02-21T03:05:43.439Z,2.79
2018-02-21T03:08:10.935Z,2.75
2018-02-21T03:10:38.443Z,2.75
2018-02-21T03:13:05.964Z,2.77
2018-02-21T03:15:33.474Z,2.74
2018-02-21T03:18:00.910Z,2.77
2018-02-21T03:20:28.461Z,2.76
2018-02-21T03:22:55.989Z,2.73
2018-02-21T03:25:23.502Z,2.77
2018-02-21T03:27:50.991Z,2.82
2018-02-21T03:30:18.447Z,2.78
2018-02-21T03:32:45.863Z,2.79
2018-02-21T03:35:13.392Z,2.82
2018-02-21T03:37:40.851Z,2.82
2018-02-21T03:40:08.393Z,2.78
2018-02-21T03:42:36.753Z,2.75
2018-02-21T03:45:05.356Z,2.72
2018-02-21T03:47:32.919Z,2.75
2018-02-21T03:50:00.409Z,2.84
2018-02-21T03:52:27.980Z,2.84
2018-02-21T03:54:55.655Z,2.82
2018-02-21T03:57:23.151Z,2.80
2018-02-21T03:59:50.672Z,2.86
2018-02-21T04:02:18.511Z,2.81
2018-02-21T04:04:46.011Z,2.80
2018-02-21T04:07:13.478Z,2.79
2018-02-21T04:09:40.962Z,2.76
2018-02-21T04:12:08.460Z,2.82
2018-02-21T04:14:35.916Z,2.85
2018-02-21T04:17:03.530Z,2.80
2018-02-21T04:19:31.098Z,2.79
2018-02-21T04:21:58.624Z,2.80
2018-02-21T04:24:26.220Z,2.76
2018-02-21T04:26:53.659Z,2.74
2018-02-21T04:29:21.050Z,2.70
2018-02-21T04:31:48.489Z,2.70
2018-02-21T04:34:16.003Z,2.68
2018-02-21T04:36:43.471Z,2.68
2018-02-21T04:39:11.026Z,2.71
2018-02-21T04:41:38.523Z,2.75
2018-02-21T04:44:05.946Z,2.78
2018-02-21T04:46:33.404Z,2.72
2018-02-21T04:49:00.989Z,2.70
2018-02-21T04:51:28.638Z,2.73
2018-02-21T04:53:56.834Z,2.71
2018-02-21T04:56:27.762Z,2.73
2018-02-21T04:58:58.798Z,2.78
2018-02-21T05:01:26.327Z,2.82
2018-02-21T05:03:53.828Z,2.81
2018-02-21T05:06:21.292Z,2.88
2018-02-21T05:11:23.299Z,2.76
2018-02-21T05:13:50.765Z,2.81
2018-02-21T05:16:18.273Z,2.88
2018-02-21T05:18:45.745Z,2.93
2018-02-21T05:21:13.251Z,2.93
2018-02-21T05:23:40.721Z,2.81
2018-02-21T05:26:08.231Z,2.70
2018-02-21T05:28:35.737Z,2.76
2018-02-21T05:31:03.467Z,2.78
2018-02-21T05:33:31.033Z,2.71
2018-02-21T05:35:58.538Z,2.63
2018-02-21T05:38:26.147Z,2.66
2018-02-21T05:40:53.771Z,2.61
2018-02-21T05:43:21.347Z,2.60
2018-02-21T05:45:48.937Z,2.66
2018-02-21T05:48:16.408Z,2.70
2018-02-21T05:50:44.257Z,2.73
2018-02-21T05:53:11.765Z,2.74
2018-02-21T05:55:39.518Z,2.71
2018-02-21T05:58:07.034Z,2.70
2018-02-21T06:00:34.497Z,2.70
2018-02-21T06:03:01.950Z,2.72
2018-02-21T06:05:29.467Z,2.65
2018-02-21T06:07:56.989Z,2.60
2018-02-21T06:10:24.472Z,2.74
2018-02-21T06:12:51.973Z,2.69
2018-02-21T06:15:19.495Z,2.62
2018-02-21T06:17:47.030Z,2.61
2018-02-21T06:20:14.501Z,2.57
2018-02-21T06:22:41.950Z,2.55
2018-02-21T06:25:09.758Z,2.59
2018-02-21T06:27:37.252Z,2.64
2018-02-21T06:30:04.786Z,2.64
2018-02-21T06:32:32.273Z,2.60
2018-02-21T06:34:59.771Z,2.60
2018-02-21T06:37:27.244Z,2.65
2018-02-21T06:39:55.626Z,2.68
2018-02-21T06:42:23.367Z,2.72
2018-02-21T06:44:50.836Z,2.74
2018-02-21T06:47:18.373Z,2.69
2018-02-21T06:49:45.937Z,2.67
2018-02-21T06:52:13.445Z,2.71
2018-02-21T06:54:40.969Z,2.66
2018-02-21T06:57:08.471Z,2.67
2018-02-21T06:59:36.031Z,2.68
2018-02-21T07:02:04.549Z,2.64
2018-02-21T07:04:32.023Z,2.62
2018-02-21T07:06:59.511Z,2.65
2018-02-21T07:09:27.115Z,2.61
2018-02-21T07:11:54.617Z,2.60
2018-02-21T07:14:22.178Z,2.70
2018-02-21T07:16:49.684Z,3.05
2018-02-21T07:19:17.998Z,3.17
2018-02-21T07:21:45.860Z,3.24
2018-02-21T07:24:13.346Z,3.65
2018-02-21T07:26:40.914Z,3.97
2018-02-21T07:29:08.426Z,4.26
2018-02-21T07:31:35.917Z,4.63
2018-02-21T07:34:03.389Z,4.65
2018-02-21T07:36:30.862Z,4.61
2018-02-21T07:38:58.629Z,4.66
2018-02-21T07:41:26.153Z,4.60
2018-02-21T07:43:54.448Z,4.53
2018-02-21T07:46:21.914Z,5.07
2018-02-21T07:48:49.431Z,5.38
2018-02-21T07:51:17.035Z,5.80
2018-02-21T07:53:44.559Z,6.07
2018-02-21T07:56:12.102Z,6.23
2018-02-21T07:58:39.720Z,6.35
2018-02-21T08:01:07.206Z,6.31
2018-02-21T08:03:34.758Z,6.61
2018-02-21T08:06:03.128Z,6.43
2018-02-21T08:08:30.717Z,6.47
2018-02-21T08:10:58.186Z,6.63
2018-02-21T08:13:25.740Z,6.77
2018-02-21T08:15:53.233Z,7.04
2018-02-21T08:18:20.791Z,7.29
2018-02-21T08:20:48.316Z,7.58
2018-02-21T08:23:15.741Z,7.92
2018-02-21T08:25:43.321Z,8.05
2018-02-21T08:28:10.792Z,7.91
2018-02-21T08:30:38.377Z,7.89
2018-02-21T08:33:05.914Z,7.83
2018-02-21T08:35:33.400Z,7.94
2018-02-21T08:38:01.432Z,8.22
2018-02-21T08:40:28.970Z,8.32
2018-02-21T08:42:56.455Z,8.21
2018-02-21T08:45:23.951Z,8.42
2018-02-21T08:47:51.461Z,8.71
2018-02-21T08:50:18.966Z,8.90
2018-02-21T08:52:46.503Z,8.76
2018-02-21T08:55:13.983Z,8.66
2018-02-21T08:57:41.621Z,8.57
2018-02-21T09:00:09.125Z,8.78
2018-02-21T09:02:36.684Z,9.21
2018-02-21T09:05:04.782Z,9.12
2018-02-21T09:07:32.396Z,8.98
2018-02-21T09:09:59.833Z,8.99
2018-02-21T09:12:28.155Z,9.38
2018-02-21T09:14:55.627Z,9.17
2018-02-21T09:17:23.040Z,9.38
2018-02-21T09:19:50.489Z,9.53
2018-02-21T09:22:17.942Z,9.56
2018-02-21T09:24:45.425Z,9.38
2018-02-21T09:27:12.918Z,9.68
2018-02-21T09:29:40.413Z,9.29
2018-02-21T09:32:07.940Z,9.04
2018-02-21T09:34:35.358Z,8.37
2018-02-21T09:37:02.882Z,7.63
2018-02-21T09:39:30.353Z,7.42
2018-02-21T09:41:57.940Z,7.25
2018-02-21T09:44:25.743Z,6.82
2018-02-21T09:46:53.276Z,6.63
2018-02-21T09:49:20.852Z,6.91
2018-02-21T09:51:48.525Z,6.63
2018-02-21T09:54:16.013Z,6.16
2018-02-21T09:56:43.529Z,5.93
2018-02-21T09:59:10.990Z,5.53
2018-02-21T10:01:38.595Z,5.28
2018-02-21T10:04:06.138Z,5.07
2018-02-21T10:06:33.609Z,5.01
2018-02-21T10:09:01.347Z,4.92
2018-02-21T10:11:28.814Z,4.91
2018-02-21T10:13:56.274Z,4.83
2018-02-21T10:16:23.732Z,4.64
2018-02-21T10:18:51.234Z,4.62
2018-02-21T10:21:18.745Z,4.58
2018-02-21T10:23:46.319Z,4.57
2018-02-21T10:26:13.833Z,4.59
2018-02-21T10:28:41.549Z,4.58
2018-02-21T10:31:09.024Z,4.69
2018-02-21T10:33:36.646Z,4.78
2018-02-21T10:36:04.592Z,4.72
2018-02-21T10:38:32.086Z,4.70
2018-02-21T10:40:59.601Z,4.84
2018-02-21T10:43:27.076Z,4.75
2018-02-21T10:45:54.742Z,4.82
2018-02-21T10:48:22.307Z,4.62
2018-02-21T10:50:49.809Z,4.59
2018-02-21T10:53:17.354Z,4.69
2018-02-21T10:55:44.870Z,4.76
2018-02-21T10:58:12.690Z,4.71
2018-02-21T11:00:45.749Z,4.69
2018-02-21T11:03:13.216Z,4.68
2018-02-21T11:05:40.974Z,4.63
2018-02-21T11:08:08.456Z,4.58
2018-02-21T11:10:36.140Z,4.62
2018-02-21T11:13:04.575Z,4.79
2018-02-21T11:15:31.999Z,4.80
2018-02-21T11:17:59.593Z,4.79
2018-02-21T11:20:27.021Z,4.70
2018-02-21T11:22:54.489Z,4.53
2018-02-21T11:25:22.148Z,4.47
2018-02-21T11:27:49.666Z,4.39
2018-02-21T11:30:17.382Z,4.34
2018-02-21T11:32:44.952Z,4.33
2018-02-21T11:35:12.493Z,4.30
2018-02-21T11:37:39.978Z,4.34
2018-02-21T11:40:07.520Z,4.31
2018-02-21T11:42:34.971Z,4.27
2018-02-21T11:45:02.527Z,4.22
2018-02-21T11:47:29.924Z,4.30
2018-02-21T11:49:57.426Z,4.37
2018-02-21T11:52:24.904Z,4.47
2018-02-21T11:54:52.972Z,4.47
2018-02-21T11:57:20.434Z,4.30
2018-02-21T11:59:47.883Z,4.24
2018-02-21T12:02:15.430Z,4.27
2018-02-21T12:04:43.160Z,4.28
2018-02-21T12:07:10.625Z,4.28
2018-02-21T12:09:41.192Z,4.25
2018-02-21T12:12:08.690Z,4.26
2018-02-21T12:14:36.302Z,4.26
2018-02-21T12:17:03.769Z,4.08
2018-02-21T12:19:31.274Z,4.07
2018-02-21T12:21:58.771Z,4.09
2018-02-21T12:24:26.280Z,4.09
2018-02-21T12:26:54.176Z,4.18
2018-02-21T12:29:21.683Z,4.22
2018-02-21T12:31:51.567Z,4.28
2018-02-21T12:34:19.085Z,4.32
2018-02-21T12:36:46.602Z,4.33
2018-02-21T12:39:19.834Z,4.35
2018-02-21T12:41:47.339Z,4.39
2018-02-21T12:44:14.894Z,4.34
2018-02-21T12:46:42.366Z,4.27
2018-02-21T12:49:09.916Z,4.29
2018-02-21T12:51:37.416Z,4.32
2018-02-21T12:54:04.988Z,4.24
2018-02-21T12:56:32.560Z,4.28
2018-02-21T12:59:00.079Z,4.39
2018-02-21T13:01:27.582Z,4.35
2018-02-21T13:03:55.088Z,4.42
2018-02-21T13:06:22.616Z,4.40
2018-02-21T13:08:50.103Z,4.30
2018-02-21T13:11:17.585Z,4.36
2018-02-21T13:13:45.068Z,4.43
2018-02-21T13:16:12.500Z,4.36
2018-02-21T13:18:39.908Z,4.35
2018-02-21T13:21:07.365Z,4.31
2018-02-21T13:23:34.868Z,4.28
2018-02-21T13:26:02.779Z,4.32
2018-02-21T13:28:30.305Z,4.46
2018-02-21T13:30:57.788Z,4.51
2018-02-21T13:33:25.267Z,4.53
2018-02-21T13:35:52.846Z,4.58
2018-02-21T13:38:20.298Z,4.57
2018-02-21T13:40:47.721Z,4.49
2018-02-21T13:43:15.124Z,4.46
2018-02-21T13:45:42.520Z,4.41
2018-02-21T13:48:10.029Z,4.33
2018-02-21T13:50:37.748Z,4.32
2018-02-21T13:53:05.259Z,4.41
2018-02-21T13:55:32.742Z,4.50
2018-02-21T13:58:00.239Z,4.49
2018-02-21T14:00:27.664Z,4.40
2018-02-21T14:02:55.123Z,4.33
2018-02-21T14:05:23.766Z,4.30
2018-02-21T14:07:51.218Z,4.24
2018-02-21T14:10:19.633Z,4.19
2018-02-21T14:12:47.091Z,4.14
2018-02-21T14:15:14.621Z,4.09
2018-02-21T14:17:42.645Z,4.11
2018-02-21T14:20:10.359Z,4.30
2018-02-21T14:22:37.855Z,4.36
2018-02-21T14:25:05.413Z,4.34
2018-02-21T14:27:32.935Z,4.29
2018-02-21T14:30:00.485Z,4.41
2018-02-21T14:32:28.726Z,4.50
2018-02-21T14:34:56.246Z,4.53
2018-02-21T14:37:23.729Z,4.55
2018-02-21T14:39:51.295Z,4.57
2018-02-21T14:42:18.773Z,4.59
2018-02-21T14:44:46.394Z,4.63
2018-02-21T14:47:13.880Z,4.64
2018-02-21T14:49:41.390Z,4.59
2018-02-21T14:52:09.316Z,4.62
2018-02-21T14:54:36.820Z,4.54
2018-02-21T14:57:04.359Z,4.44
2018-02-21T14:59:31.928Z,4.45
2018-02-21T15:01:59.397Z,4.45
2018-02-21T15:04:26.894Z,4.43
2018-02-21T15:06:54.509Z,4.42
2018-02-21T15:09:22.073Z,4.42
2018-02-21T15:11:49.612Z,4.40
2018-02-21T15:14:17.106Z,4.39
2018-02-21T15:16:44.669Z,4.44
2018-02-21T15:19:12.162Z,4.31
2018-02-21T15:21:39.660Z,4.29
2018-02-21T15:24:08.144Z,4.34
2018-02-21T15:26:35.609Z,4.29
2018-02-21T15:29:04.006Z,4.33
2018-02-21T15:31:31.514Z,4.36
2018-02-21T15:33:59.059Z,4.37
2018-02-21T15:36:26.538Z,4.36
2018-02-21T15:38:54.014Z,4.32
2018-02-21T15:41:21.502Z,4.32
2018-02-21T15:43:48.995Z,4.29
2018-02-21T15:46:16.525Z,4.26
2018-02-21T15:48:44.093Z,4.28
2018-02-21T15:51:11.591Z,4.27
2018-02-21T15:53:39.281Z,4.26
2018-02-21T15:56:06.805Z,4.20
2018-02-21T15:58:34.303Z,4.10
2018-02-21T16:01:01.853Z,4.08
2018-02-21T16:03:30.611Z,4.15
2018-02-21T16:05:58.062Z,4.14
2018-02-21T16:08:25.616Z,4.16
2018-02-21T16:10:53.278Z,4.11
2018-02-21T16:13:20.675Z,4.10
2018-02-21T16:15:48.134Z,4.02
2018-02-21T16:18:15.779Z,4.05
2018-02-21T16:20:43.240Z,4.03
2018-02-21T16:23:11.293Z,4.07
2018-02-21T16:25:39.005Z,4.03
2018-02-21T16:28:06.498Z,3.95
2018-02-21T16:30:34.296Z,3.88
2018-02-21T16:33:01.791Z,3.81
2018-02-21T16:35:29.253Z,3.87
2018-02-21T16:37:56.746Z,3.89
2018-02-21T16:40:24.257Z,3.91
2018-02-21T16:42:51.930Z,3.87
2018-02-21T16:45:19.394Z,3.90
2018-02-21T16:47:46.847Z,3.90
2018-02-21T16:50:14.415Z,3.87
2018-02-21T16:52:41.827Z,3.81
2018-02-21T16:55:09.914Z,3.75
2018-02-21T16:57:37.453Z,3.76
2018-02-21T17:00:04.929Z,3.82
2018-02-21T17:02:32.451Z,3.76
2018-02-21T17:04:59.929Z,3.80
2018-02-21T17:07:27.423Z,3.76
2018-02-21T17:09:54.897Z,3.75
2018-02-21T17:12:22.419Z,3.82
2018-02-21T17:14:49.942Z,3.89
2018-02-21T17:17:17.467Z,3.80
2018-02-21T17:19:45.972Z,3.76
2018-02-21T17:22:13.443Z,3.78
2018-02-21T17:24:41.245Z,3.74
2018-02-21T17:27:08.790Z,3.76
2018-02-21T17:29:36.301Z,3.77
2018-02-21T17:32:03.773Z,3.75
2018-02-21T17:34:31.275Z,3.74
2018-02-21T17:36:58.741Z,3.80
2018-02-21T17:39:26.228Z,3.78
2018-02-21T17:41:53.763Z,3.78
2018-02-21T17:44:21.544Z,3.77
2018-02-21T17:46:49.037Z,3.75
2018-02-21T17:49:16.455Z,3.65
2018-02-21T17:51:44.065Z,3.60
2018-02-21T17:54:11.570Z,3.65
2018-02-21T17:56:39.091Z,3.68
2018-02-21T17:59:06.637Z,3.70
2018-02-21T18:01:34.208Z,3.65
2018-02-21T18:04:01.747Z,3.70
2018-02-21T18:06:29.156Z,3.66
2018-02-21T18:08:56.682Z,3.69
2018-02-21T18:11:24.165Z,3.68
2018-02-21T18:13:51.577Z,3.67
2018-02-21T18:16:19.058Z,3.80
2018-02-21T18:18:46.524Z,3.79
2018-02-21T18:21:19.530Z,3.77
2018-02-21T18:23:47.055Z,3.77
2018-02-21T18:26:14.503Z,3.69
2018-02-21T18:28:42.037Z,3.67
2018-02-21T18:31:09.559Z,3.62
2018-02-21T18:33:37.037Z,3.64
2018-02-21T18:36:04.529Z,3.67
2018-02-21T18:38:32.075Z,3.66
2018-02-21T18:40:59.609Z,3.68
2018-02-21T18:43:27.139Z,3.68
2018-02-21T18:45:54.696Z,3.68
2018-02-21T18:48:22.251Z,3.67
2018-02-21T18:50:49.722Z,3.64
2018-02-21T18:53:17.227Z,3.66
2018-02-21T18:55:44.756Z,3.66
2018-02-21T18:58:12.395Z,3.70
2018-02-21T19:00:39.870Z,3.65
2018-02-21T19:03:07.340Z,3.59
2018-02-21T19:05:34.946Z,3.61
2018-02-21T19:08:02.402Z,3.65
2018-02-21T19:10:30.012Z,3.65
2018-02-21T19:12:57.550Z,3.64
2018-02-21T19:15:25.067Z,3.65
2018-02-21T19:17:52.739Z,3.66
2018-02-21T19:20:20.245Z,3.58
2018-02-21T19:22:47.735Z,3.58
2018-02-21T19:25:15.346Z,3.63
2018-02-21T19:27:42.900Z,3.64
2018-02-21T19:30:10.452Z,3.65
2018-02-21T19:32:38.020Z,3.66
2018-02-21T19:35:05.506Z,3.62
2018-02-21T19:37:32.987Z,3.61
2018-02-21T19:40:00.490Z,3.57
2018-02-21T19:42:28.064Z,3.60
2018-02-21T19:44:55.531Z,3.62
2018-02-21T19:47:22.967Z,3.66
2018-02-21T19:49:50.437Z,3.67
2018-02-21T19:52:17.995Z,3.66
2018-02-21T19:54:45.423Z,3.72
2018-02-21T19:57:12.820Z,3.70
2018-02-21T19:59:40.278Z,3.64
2018-02-21T20:02:07.716Z,3.65
2018-02-21T20:04:35.177Z,3.64
2018-02-21T20:07:02.560Z,3.63
2018-02-21T20:09:29.958Z,3.61
2018-02-21T20:11:57.364Z,3.54
2018-02-21T20:14:25.031Z,3.46
2018-02-21T20:16:52.537Z,3.48
2018-02-21T20:19:20.031Z,3.42
2018-02-21T20:21:47.536Z,3.41
2018-02-21T20:24:15.030Z,3.42
2018-02-21T20:26:42.447Z,3.41
2018-02-21T20:29:09.995Z,3.39
2018-02-21T20:31:37.419Z,3.40
2018-02-21T20:34:04.931Z,3.35
2018-02-21T20:36:32.547Z,3.32
2018-02-21T20:39:00.099Z,3.29
2018-02-21T20:41:27.650Z,3.31
2018-02-21T20:43:55.144Z,3.30
2018-02-21T20:46:22.625Z,3.25
2018-02-21T20:48:50.063Z,3.28
2018-02-21T20:51:17.578Z,3.25
2018-02-21T20:53:45.044Z,3.23
2018-02-21T20:56:12.533Z,3.21
2018-02-21T20:58:39.967Z,3.20
2018-02-21T21:01:07.496Z,3.20
2018-02-21T21:03:34.910Z,3.23
2018-02-21T21:06:02.363Z,3.23
2018-02-21T21:08:29.970Z,3.17
2018-02-21T21:10:57.405Z,3.11
2018-02-21T21:13:24.865Z,3.04
2018-02-21T21:15:52.279Z,3.07
2018-02-21T21:18:19.722Z,3.13
2018-02-21T21:20:47.160Z,3.11
2018-02-21T21:23:14.617Z,3.14
2018-02-21T21:25:42.090Z,3.18
2018-02-21T21:28:09.564Z,3.24
2018-02-21T21:30:37.037Z,3.15
2018-02-21T21:33:04.464Z,3.12
2018-02-21T21:35:31.926Z,3.06
2018-02-21T21:37:59.423Z,2.97
2018-02-21T21:40:26.820Z,3.02
2018-02-21T21:42:54.319Z,3.03
2018-02-21T21:45:21.732Z,3.06
2018-02-21T21:47:49.152Z,3.04
2018-02-21T21:50:16.665Z,3.03
2018-02-21T21:52:44.203Z,3.04
2018-02-21T21:55:11.719Z,3.06
2018-02-21T21:57:39.196Z,3.06
2018-02-21T22:00:06.707Z,3.05
2018-02-21T22:02:34.372Z,3.06
2018-02-21T22:05:01.821Z,3.03
2018-02-21T22:07:29.296Z,3.06
2018-02-21T22:09:56.708Z,3.07
2018-02-21T22:12:24.111Z,2.98
2018-02-21T22:14:51.572Z,3.01
2018-02-21T22:17:19.105Z,3.00
2018-02-21T22:19:46.656Z,2.95
2018-02-21T22:22:14.789Z,2.88
2018-02-21T22:24:42.318Z,2.85
2018-02-21T22:27:09.809Z,2.88
2018-02-21T22:29:37.229Z,2.84
2018-02-21T22:32:04.766Z,2.86
2018-02-21T22:34:32.188Z,2.86
2018-02-21T22:36:59.709Z,2.85
2018-02-21T22:39:28.431Z,2.84
2018-02-21T22:41:55.951Z,2.82
2018-02-21T22:44:23.360Z,2.84
2018-02-21T22:46:50.797Z,2.86
2018-02-21T22:49:18.222Z,2.87
2018-02-21T22:51:45.612Z,2.84
2018-02-21T22:54:13.017Z,2.76
2018-02-21T22:56:40.463Z,2.78
2018-02-21T22:59:07.965Z,2.76
2018-02-21T23:01:35.365Z,2.78
2018-02-21T23:04:02.780Z,2.76
2018-02-21T23:06:31.007Z,2.78
2018-02-21T23:08:58.440Z,2.77
2018-02-21T23:11:25.851Z,2.79
2018-02-21T23:13:53.258Z,2.76
2018-02-21T23:16:20.704Z,2.76
2018-02-21T23:18:48.144Z,2.73
2018-02-21T23:21:15.544Z,2.77
2018-02-21T23:23:42.988Z,2.81
2018-02-21T23:26:10.508Z,2.82
2018-02-21T23:28:37.926Z,2.88
2018-02-21T23:31:05.372Z,2.84
2018-02-21T23:33:32.774Z,2.79
2018-02-21T23:36:00.209Z,2.75
2018-02-21T23:38:27.591Z,2.68
2018-02-21T23:40:54.999Z,2.70
2018-02-21T23:43:22.439Z,2.74
2018-02-21T23:45:49.842Z,2.70
2018-02-21T23:48:17.984Z,2.63
2018-02-21T23:50:45.591Z,2.63
2018-02-21T23:53:13.396Z,2.64
2018-02-21T23:55:40.786Z,2.69
2018-02-21T23:58:08.194Z,2.70
